sensor_id;sensor_type;location;lat;lon;timestamp;P1;durP1;ratioP1;P2;durP2;ratioP2
19560;SDS011;9927;47.792;10.616;2023-12-20T04:02:34;4.60;;;4.40;;
19560;SDS011;9927;47.792;10.616;2023-12-20T04:05:01;4.80;;;4.60;;
19560;SDS011;9927;47.792;10.616;2023-12-20T04:07:28;4.77;;;4.50;;
19560;SDS011;9927;47.792;10.616;2023-12-20T04:09:56;4.87;;;4.67;;
19560;SDS011;9927;47.792;10.616;2023-12-20T04:12:24;5.17;;;4.70;;
19560;SDS011;9927;47.792;10.616;2023-12-20T04:14:51;5.23;;;4.93;;
19560;SDS011;9927;47.792;10.616;2023-12-20T04:17:19;5.27;;;4.97;;
19560;SDS011;9927;47.792;10.616;2023-12-20T04:19:47;5.33;;;5.03;;
19560;SDS011;9927;47.792;10.616;2023-12-20T04:22:14;5.50;;;5.20;;
19560;SDS011;9927;47.792;10.616;2023-12-20T04:24:42;5.70;;;5.30;;
19560;SDS011;9927;47.792;10.616;2023-12-20T04:27:09;5.43;;;5.13;;
19560;SDS011;9927;47.792;10.616;2023-12-20T04:29:37;5.43;;;5.13;;
19560;SDS011;9927;47.792;10.616;2023-12-20T04:32:04;5.60;;;5.20;;
19560;SDS011;9927;47.792;10.616;2023-12-20T04:34:32;5.90;;;5.50;;
19560;SDS011;9927;47.792;10.616;2023-12-20T04:36:59;5.77;;;5.37;;
19560;SDS011;9927;47.792;10.616;2023-12-20T04:39:28;5.53;;;5.17;;
19560;SDS011;9927;47.792;10.616;2023-12-20T04:41:55;5.50;;;5.10;;
19560;SDS011;9927;47.792;10.616;2023-12-20T04:44:23;5.60;;;5.20;;
19560;SDS011;9927;47.792;10.616;2023-12-20T04:46:50;5.43;;;5.13;;
19560;SDS011;9927;47.792;10.616;2023-12-20T04:49:17;5.50;;;5.20;;
19560;SDS011;9927;47.792;10.616;2023-12-20T04:51:44;5.60;;;5.20;;
19560;SDS011;9927;47.792;10.616;2023-12-20T04:54:12;5.40;;;5.10;;
19560;SDS011;9927;47.792;10.616;2023-12-20T04:56:40;6.30;;;5.80;;
19560;SDS011;9927;47.792;10.616;2023-12-20T04:59:08;5.40;;;5.10;;
19560;SDS011;9927;47.792;10.616;2023-12-20T05:01:35;5.93;;;5.53;;
19560;SDS011;9927;47.792;10.616;2023-12-20T05:04:03;6.03;;;5.53;;
19560;SDS011;9927;47.792;10.616;2023-12-20T05:06:31;5.47;;;5.17;;
19560;SDS011;9927;47.792;10.616;2023-12-20T05:08:58;6.20;;;5.80;;
19560;SDS011;9927;47.792;10.616;2023-12-20T05:11:25;6.53;;;6.10;;
19560;SDS011;9927;47.792;10.616;2023-12-20T05:13:52;6.63;;;6.13;;
19560;SDS011;9927;47.792;10.616;2023-12-20T05:16:19;6.43;;;5.93;;
19560;SDS011;9927;47.792;10.616;2023-12-20T05:18:48;6.33;;;5.93;;
19560;SDS011;9927;47.792;10.616;2023-12-20T05:21:17;6.40;;;5.90;;
19560;SDS011;9927;47.792;10.616;2023-12-20T05:23:44;6.53;;;6.00;;
19560;SDS011;9927;47.792;10.616;2023-12-20T05:26:12;6.30;;;5.80;;
19560;SDS011;9927;47.792;10.616;2023-12-20T05:28:39;6.30;;;5.90;;
19560;SDS011;9927;47.792;10.616;2023-12-20T05:31:06;7.23;;;6.53;;
19560;SDS011;9927;47.792;10.616;2023-12-20T05:33:34;6.90;;;6.40;;
19560;SDS011;9927;47.792;10.616;2023-12-20T05:36:01;6.50;;;6.00;;
19560;SDS011;9927;47.792;10.616;2023-12-20T05:38:29;7.17;;;6.47;;
19560;SDS011;9927;47.792;10.616;2023-12-20T05:40:56;6.70;;;6.20;;
19560;SDS011;9927;47.792;10.616;2023-12-20T05:43:23;6.77;;;6.27;;
19560;SDS011;9927;47.792;10.616;2023-12-20T05:45:51;6.60;;;6.10;;
19560;SDS011;9927;47.792;10.616;2023-12-20T05:48:18;6.37;;;5.97;;
19560;SDS011;9927;47.792;10.616;2023-12-20T05:50:45;6.60;;;6.20;;
19560;SDS011;9927;47.792;10.616;2023-12-20T05:53:13;6.90;;;6.40;;
19560;SDS011;9927;47.792;10.616;2023-12-20T05:55:40;6.00;;;5.60;;
19560;SDS011;9927;47.792;10.616;2023-12-20T05:58:07;6.27;;;5.87;;
19560;SDS011;9927;47.792;10.616;2023-12-20T06:00:34;5.90;;;5.60;;
19560;SDS011;9927;47.792;10.616;2023-12-20T06:03:02;6.03;;;5.67;;
19560;SDS011;9927;47.792;10.616;2023-12-20T06:05:31;5.53;;;5.23;;
19560;SDS011;9927;47.792;10.616;2023-12-20T06:07:58;5.60;;;5.30;;
19560;SDS011;9927;47.792;10.616;2023-12-20T06:10:29;6.37;;;5.87;;
19560;SDS011;9927;47.792;10.616;2023-12-20T06:12:56;5.50;;;5.20;;
19560;SDS011;9927;47.792;10.616;2023-12-20T06:15:25;5.80;;;5.50;;
19560;SDS011;9927;47.792;10.616;2023-12-20T06:17:53;5.47;;;5.17;;
19560;SDS011;9927;47.792;10.616;2023-12-20T06:20:20;5.67;;;5.27;;
19560;SDS011;9927;47.792;10.616;2023-12-20T06:22:48;5.40;;;5.10;;
19560;SDS011;9927;47.792;10.616;2023-12-20T06:25:15;5.90;;;5.50;;
19560;SDS011;9927;47.792;10.616;2023-12-20T06:27:43;5.93;;;5.53;;
19560;SDS011;9927;47.792;10.616;2023-12-20T06:30:11;5.77;;;5.37;;
19560;SDS011;9927;47.792;10.616;2023-12-20T06:32:38;5.83;;;5.43;;
19560;SDS011;9927;47.792;10.616;2023-12-20T06:35:06;5.77;;;5.27;;
19560;SDS011;9927;47.792;10.616;2023-12-20T06:37:34;5.63;;;5.33;;
19560;SDS011;9927;47.792;10.616;2023-12-20T06:40:01;5.40;;;5.10;;
19560;SDS011;9927;47.792;10.616;2023-12-20T06:42:29;5.27;;;5.00;;
19560;SDS011;9927;47.792;10.616;2023-12-20T06:45:00;4.77;;;4.57;;
19560;SDS011;9927;47.792;10.616;2023-12-20T06:47:27;5.20;;;5.00;;
19560;SDS011;9927;47.792;10.616;2023-12-20T06:49:55;5.00;;;4.60;;
19560;SDS011;9927;47.792;10.616;2023-12-20T06:52:22;4.70;;;4.50;;
19560;SDS011;9927;47.792;10.616;2023-12-20T06:54:50;6.10;;;5.70;;
19560;SDS011;9927;47.792;10.616;2023-12-20T06:57:17;5.20;;;5.00;;
19560;SDS011;9927;47.792;10.616;2023-12-20T06:59:46;5.07;;;4.77;;
19560;SDS011;9927;47.792;10.616;2023-12-20T07:02:13;5.40;;;5.10;;
19560;SDS011;9927;47.792;10.616;2023-12-20T07:04:41;5.60;;;5.20;;
19560;SDS011;9927;47.792;10.616;2023-12-20T07:07:08;5.17;;;4.97;;
19560;SDS011;9927;47.792;10.616;2023-12-20T07:09:36;5.10;;;4.90;;
19560;SDS011;9927;47.792;10.616;2023-12-20T07:12:05;5.00;;;4.70;;
19560;SDS011;9927;47.792;10.616;2023-12-20T07:14:32;5.40;;;5.10;;
19560;SDS011;9927;47.792;10.616;2023-12-20T07:16:59;4.83;;;4.63;;
19560;SDS011;9927;47.792;10.616;2023-12-20T07:19:27;4.53;;;4.40;;
19560;SDS011;9927;47.792;10.616;2023-12-20T07:21:54;4.73;;;4.33;;
19560;SDS011;9927;47.792;10.616;2023-12-20T07:24:21;4.03;;;3.93;;
19560;SDS011;9927;47.792;10.616;2023-12-20T07:26:49;4.03;;;3.93;;
19560;SDS011;9927;47.792;10.616;2023-12-20T07:29:16;3.70;;;3.60;;
19560;SDS011;9927;47.792;10.616;2023-12-20T07:31:43;4.03;;;3.93;;
19560;SDS011;9927;47.792;10.616;2023-12-20T07:34:10;3.80;;;3.70;;
19560;SDS011;9927;47.792;10.616;2023-12-20T07:36:38;3.60;;;3.50;;
19560;SDS011;9927;47.792;10.616;2023-12-20T07:39:05;3.83;;;3.73;;
19560;SDS011;9927;47.792;10.616;2023-12-20T07:41:32;3.90;;;3.80;;
19560;SDS011;9927;47.792;10.616;2023-12-20T07:44:00;3.70;;;3.60;;
19560;SDS011;9927;47.792;10.616;2023-12-20T07:46:27;3.50;;;3.40;;
19560;SDS011;9927;47.792;10.616;2023-12-20T07:48:54;4.00;;;3.90;;
19560;SDS011;9927;47.792;10.616;2023-12-20T07:51:22;3.90;;;3.80;;
19560;SDS011;9927;47.792;10.616;2023-12-20T07:53:49;3.87;;;3.77;;
19560;SDS011;9927;47.792;10.616;2023-12-20T07:56:17;4.00;;;3.90;;
19560;SDS011;9927;47.792;10.616;2023-12-20T07:58:45;3.90;;;3.80;;
19560;SDS011;9927;47.792;10.616;2023-12-20T08:01:19;3.80;;;3.60;;
19560;SDS011;9927;47.792;10.616;2023-12-20T08:03:48;3.30;;;3.30;;
19560;SDS011;9927;47.792;10.616;2023-12-20T08:06:17;3.50;;;3.50;;
19560;SDS011;9927;47.792;10.616;2023-12-20T08:08:45;3.20;;;3.20;;
19560;SDS011;9927;47.792;10.616;2023-12-20T08:11:20;3.50;;;3.40;;
19560;SDS011;9927;47.792;10.616;2023-12-20T08:13:47;3.47;;;3.47;;
19560;SDS011;9927;47.792;10.616;2023-12-20T08:16:15;3.30;;;3.20;;
19560;SDS011;9927;47.792;10.616;2023-12-20T08:18:44;3.10;;;3.00;;
19560;SDS011;9927;47.792;10.616;2023-12-20T08:21:12;3.10;;;3.10;;
19560;SDS011;9927;47.792;10.616;2023-12-20T08:23:39;3.20;;;3.10;;
19560;SDS011;9927;47.792;10.616;2023-12-20T08:26:07;3.00;;;3.00;;
19560;SDS011;9927;47.792;10.616;2023-12-20T08:28:34;3.30;;;3.30;;
19560;SDS011;9927;47.792;10.616;2023-12-20T08:31:03;3.10;;;3.10;;
19560;SDS011;9927;47.792;10.616;2023-12-20T08:33:31;3.00;;;3.00;;
19560;SDS011;9927;47.792;10.616;2023-12-20T08:35:58;3.13;;;3.13;;
19560;SDS011;9927;47.792;10.616;2023-12-20T08:38:26;3.30;;;3.30;;
19560;SDS011;9927;47.792;10.616;2023-12-20T08:40:53;3.20;;;3.20;;
19560;SDS011;9927;47.792;10.616;2023-12-20T08:43:20;3.13;;;3.13;;
19560;SDS011;9927;47.792;10.616;2023-12-20T08:45:48;3.40;;;3.30;;
19560;SDS011;9927;47.792;10.616;2023-12-20T08:48:15;3.00;;;3.00;;
19560;SDS011;9927;47.792;10.616;2023-12-20T08:50:42;2.80;;;2.80;;
19560;SDS011;9927;47.792;10.616;2023-12-20T08:53:10;2.93;;;2.93;;
19560;SDS011;9927;47.792;10.616;2023-12-20T08:55:38;2.90;;;2.90;;
19560;SDS011;9927;47.792;10.616;2023-12-20T08:58:05;2.87;;;2.87;;
19560;SDS011;9927;47.792;10.616;2023-12-20T09:00:34;2.80;;;2.80;;
19560;SDS011;9927;47.792;10.616;2023-12-20T09:03:01;2.83;;;2.80;;
19560;SDS011;9927;47.792;10.616;2023-12-20T09:05:29;2.90;;;2.90;;
19560;SDS011;9927;47.792;10.616;2023-12-20T09:07:57;2.83;;;2.83;;
19560;SDS011;9927;47.792;10.616;2023-12-20T09:10:24;2.70;;;2.60;;
19560;SDS011;9927;47.792;10.616;2023-12-20T09:12:52;2.70;;;2.70;;
19560;SDS011;9927;47.792;10.616;2023-12-20T09:15:24;3.03;;;2.93;;
19560;SDS011;9927;47.792;10.616;2023-12-20T09:17:53;2.73;;;2.73;;
19560;SDS011;9927;47.792;10.616;2023-12-20T09:20:20;3.00;;;2.90;;
19560;SDS011;9927;47.792;10.616;2023-12-20T09:22:50;3.00;;;2.90;;
19560;SDS011;9927;47.792;10.616;2023-12-20T09:25:17;2.77;;;2.77;;
19560;SDS011;9927;47.792;10.616;2023-12-20T09:27:44;2.70;;;2.70;;
19560;SDS011;9927;47.792;10.616;2023-12-20T09:30:12;3.17;;;2.97;;
19560;SDS011;9927;47.792;10.616;2023-12-20T09:32:51;2.80;;;2.60;;
19560;SDS011;9927;47.792;10.616;2023-12-20T09:35:18;2.83;;;2.77;;
19560;SDS011;9927;47.792;10.616;2023-12-20T09:37:46;2.80;;;2.80;;
19560;SDS011;9927;47.792;10.616;2023-12-20T09:40:14;2.80;;;2.80;;
19560;SDS011;9927;47.792;10.616;2023-12-20T09:42:51;2.70;;;2.70;;
19560;SDS011;9927;47.792;10.616;2023-12-20T09:45:23;2.90;;;2.90;;
19560;SDS011;9927;47.792;10.616;2023-12-20T09:47:52;2.90;;;2.90;;
19560;SDS011;9927;47.792;10.616;2023-12-20T09:50:21;3.17;;;2.97;;
19560;SDS011;9927;47.792;10.616;2023-12-20T09:52:49;2.90;;;2.80;;
19560;SDS011;9927;47.792;10.616;2023-12-20T09:55:18;2.90;;;2.90;;
19560;SDS011;9927;47.792;10.616;2023-12-20T09:57:47;2.80;;;2.70;;
19560;SDS011;9927;47.792;10.616;2023-12-20T10:00:15;3.30;;;3.10;;
19560;SDS011;9927;47.792;10.616;2023-12-20T10:02:59;3.17;;;2.90;;
19560;SDS011;9927;47.792;10.616;2023-12-20T10:05:28;3.30;;;3.20;;
19560;SDS011;9927;47.792;10.616;2023-12-20T10:07:57;3.10;;;3.10;;
19560;SDS011;9927;47.792;10.616;2023-12-20T10:10:26;3.10;;;3.00;;
19560;SDS011;9927;47.792;10.616;2023-12-20T10:13:09;3.10;;;3.00;;
19560;SDS011;9927;47.792;10.616;2023-12-20T10:15:37;3.27;;;3.17;;
19560;SDS011;9927;47.792;10.616;2023-12-20T10:18:05;3.20;;;3.20;;
19560;SDS011;9927;47.792;10.616;2023-12-20T10:20:33;2.80;;;2.80;;
19560;SDS011;9927;47.792;10.616;2023-12-20T10:23:01;2.90;;;2.90;;
19560;SDS011;9927;47.792;10.616;2023-12-20T10:25:28;2.90;;;2.80;;
19560;SDS011;9927;47.792;10.616;2023-12-20T10:28:11;3.00;;;3.00;;
19560;SDS011;9927;47.792;10.616;2023-12-20T10:30:41;3.20;;;3.20;;
19560;SDS011;9927;47.792;10.616;2023-12-20T10:33:09;3.00;;;3.00;;
19560;SDS011;9927;47.792;10.616;2023-12-20T10:35:38;2.90;;;2.90;;
19560;SDS011;9927;47.792;10.616;2023-12-20T10:38:12;3.10;;;3.00;;
19560;SDS011;9927;47.792;10.616;2023-12-20T10:40:42;3.90;;;3.60;;
19560;SDS011;9927;47.792;10.616;2023-12-20T10:43:12;3.90;;;3.60;;
19560;SDS011;9927;47.792;10.616;2023-12-20T10:45:41;3.73;;;3.53;;
19560;SDS011;9927;47.792;10.616;2023-12-20T10:48:10;2.90;;;2.90;;
19560;SDS011;9927;47.792;10.616;2023-12-20T10:50:41;2.80;;;2.63;;
19560;SDS011;9927;47.792;10.616;2023-12-20T10:53:08;2.70;;;2.60;;
19560;SDS011;9927;47.792;10.616;2023-12-20T10:55:35;2.73;;;2.73;;
19560;SDS011;9927;47.792;10.616;2023-12-20T10:58:06;2.70;;;2.70;;
19560;SDS011;9927;47.792;10.616;2023-12-20T11:00:39;2.80;;;2.70;;
19560;SDS011;9927;47.792;10.616;2023-12-20T11:03:11;2.60;;;2.60;;
19560;SDS011;9927;47.792;10.616;2023-12-20T11:05:49;2.63;;;2.63;;
19560;SDS011;9927;47.792;10.616;2023-12-20T11:08:36;2.67;;;2.57;;
19560;SDS011;9927;47.792;10.616;2023-12-20T11:11:49;2.50;;;2.50;;
19560;SDS011;9927;47.792;10.616;2023-12-20T11:17:19;2.70;;;2.70;;
19560;SDS011;9927;47.792;10.616;2023-12-20T11:22:24;2.70;;;2.70;;
19560;SDS011;9927;47.792;10.616;2023-12-20T11:24:52;2.87;;;2.67;;
19560;SDS011;9927;47.792;10.616;2023-12-20T11:27:20;2.60;;;2.60;;
19560;SDS011;9927;47.792;10.616;2023-12-20T11:29:51;2.50;;;2.50;;
19560;SDS011;9927;47.792;10.616;2023-12-20T11:35:39;2.93;;;2.73;;
19560;SDS011;9927;47.792;10.616;2023-12-20T11:37:41;2.50;;;2.50;;
19560;SDS011;9927;47.792;10.616;2023-12-20T11:40:14;2.80;;;2.80;;
19560;SDS011;9927;47.792;10.616;2023-12-20T11:42:43;2.60;;;2.60;;
19560;SDS011;9927;47.792;10.616;2023-12-20T11:45:15;2.80;;;2.80;;
19560;SDS011;9927;47.792;10.616;2023-12-20T11:47:49;3.20;;;3.10;;
19560;SDS011;9927;47.792;10.616;2023-12-20T11:50:18;3.50;;;3.33;;
19560;SDS011;9927;47.792;10.616;2023-12-20T11:52:47;3.00;;;3.00;;
19560;SDS011;9927;47.792;10.616;2023-12-20T11:55:15;3.20;;;3.20;;
19560;SDS011;9927;47.792;10.616;2023-12-20T11:57:43;3.70;;;3.60;;
19560;SDS011;9927;47.792;10.616;2023-12-20T12:00:12;3.73;;;3.63;;
19560;SDS011;9927;47.792;10.616;2023-12-20T12:02:40;4.67;;;4.47;;
19560;SDS011;9927;47.792;10.616;2023-12-20T12:05:08;4.60;;;4.33;;
19560;SDS011;9927;47.792;10.616;2023-12-20T12:07:35;5.33;;;5.03;;
19560;SDS011;9927;47.792;10.616;2023-12-20T12:10:03;5.17;;;4.87;;
19560;SDS011;9927;47.792;10.616;2023-12-20T12:12:30;4.30;;;4.17;;
19560;SDS011;9927;47.792;10.616;2023-12-20T12:14:59;5.40;;;5.10;;
19560;SDS011;9927;47.792;10.616;2023-12-20T12:17:26;4.87;;;4.60;;
19560;SDS011;9927;47.792;10.616;2023-12-20T12:20:01;4.63;;;4.43;;
19560;SDS011;9927;47.792;10.616;2023-12-20T12:22:33;4.93;;;4.73;;
19560;SDS011;9927;47.792;10.616;2023-12-20T12:25:09;4.97;;;4.67;;
19560;SDS011;9927;47.792;10.616;2023-12-20T12:27:41;5.30;;;5.00;;
19560;SDS011;9927;47.792;10.616;2023-12-20T12:30:09;4.80;;;4.60;;
19560;SDS011;9927;47.792;10.616;2023-12-20T12:32:39;4.97;;;4.77;;
19560;SDS011;9927;47.792;10.616;2023-12-20T12:35:07;5.00;;;4.60;;
19560;SDS011;9927;47.792;10.616;2023-12-20T12:37:39;4.40;;;4.20;;
19560;SDS011;9927;47.792;10.616;2023-12-20T12:40:10;3.90;;;3.80;;
19560;SDS011;9927;47.792;10.616;2023-12-20T12:42:40;3.60;;;3.50;;
19560;SDS011;9927;47.792;10.616;2023-12-20T12:45:09;3.53;;;3.43;;
19560;SDS011;9927;47.792;10.616;2023-12-20T12:47:40;3.67;;;3.57;;
19560;SDS011;9927;47.792;10.616;2023-12-20T12:50:08;3.53;;;3.43;;
19560;SDS011;9927;47.792;10.616;2023-12-20T12:52:36;3.60;;;3.50;;
19560;SDS011;9927;47.792;10.616;2023-12-20T12:55:04;3.60;;;3.50;;
19560;SDS011;9927;47.792;10.616;2023-12-20T12:57:32;3.67;;;3.57;;
19560;SDS011;9927;47.792;10.616;2023-12-20T13:00:00;3.70;;;3.60;;
19560;SDS011;9927;47.792;10.616;2023-12-20T13:02:29;3.70;;;3.60;;
19560;SDS011;9927;47.792;10.616;2023-12-20T13:04:57;3.70;;;3.60;;
19560;SDS011;9927;47.792;10.616;2023-12-20T13:07:25;3.67;;;3.57;;
19560;SDS011;9927;47.792;10.616;2023-12-20T13:09:52;3.83;;;3.73;;
19560;SDS011;9927;47.792;10.616;2023-12-20T13:12:19;4.00;;;3.90;;
19560;SDS011;9927;47.792;10.616;2023-12-20T13:14:48;4.00;;;3.90;;
19560;SDS011;9927;47.792;10.616;2023-12-20T13:17:15;4.10;;;4.00;;
19560;SDS011;9927;47.792;10.616;2023-12-20T13:19:43;4.20;;;4.00;;
19560;SDS011;9927;47.792;10.616;2023-12-20T13:22:10;3.80;;;3.70;;
19560;SDS011;9927;47.792;10.616;2023-12-20T13:24:38;3.97;;;3.87;;
19560;SDS011;9927;47.792;10.616;2023-12-20T13:27:05;3.90;;;3.80;;
19560;SDS011;9927;47.792;10.616;2023-12-20T13:29:33;3.80;;;3.60;;
19560;SDS011;9927;47.792;10.616;2023-12-20T13:32:03;3.60;;;3.50;;
19560;SDS011;9927;47.792;10.616;2023-12-20T13:34:30;3.63;;;3.53;;
19560;SDS011;9927;47.792;10.616;2023-12-20T13:36:58;3.53;;;3.43;;
19560;SDS011;9927;47.792;10.616;2023-12-20T13:39:26;3.30;;;3.20;;
19560;SDS011;9927;47.792;10.616;2023-12-20T13:41:53;3.40;;;3.30;;
19560;SDS011;9927;47.792;10.616;2023-12-20T13:44:22;3.70;;;3.60;;
19560;SDS011;9927;47.792;10.616;2023-12-20T13:46:49;3.87;;;3.77;;
19560;SDS011;9927;47.792;10.616;2023-12-20T13:49:17;4.10;;;4.00;;
19560;SDS011;9927;47.792;10.616;2023-12-20T13:51:44;3.93;;;3.83;;
19560;SDS011;9927;47.792;10.616;2023-12-20T13:54:11;4.07;;;3.77;;
19560;SDS011;9927;47.792;10.616;2023-12-20T13:56:39;10.83;;;4.23;;
19560;SDS011;9927;47.792;10.616;2023-12-20T13:59:22;3.90;;;3.80;;
19560;SDS011;9927;47.792;10.616;2023-12-20T14:01:49;3.83;;;3.73;;
19560;SDS011;9927;47.792;10.616;2023-12-20T14:04:17;3.80;;;3.70;;
19560;SDS011;9927;47.792;10.616;2023-12-20T14:07:04;4.07;;;3.97;;
19560;SDS011;9927;47.792;10.616;2023-12-20T14:09:34;3.90;;;3.80;;
19560;SDS011;9927;47.792;10.616;2023-12-20T14:12:01;3.97;;;3.87;;
19560;SDS011;9927;47.792;10.616;2023-12-20T14:14:29;4.50;;;4.30;;
19560;SDS011;9927;47.792;10.616;2023-12-20T14:16:56;3.83;;;3.70;;
19560;SDS011;9927;47.792;10.616;2023-12-20T14:19:23;4.00;;;3.90;;
19560;SDS011;9927;47.792;10.616;2023-12-20T14:21:51;4.07;;;3.90;;
19560;SDS011;9927;47.792;10.616;2023-12-20T14:24:18;4.00;;;3.90;;
19560;SDS011;9927;47.792;10.616;2023-12-20T14:26:45;4.07;;;3.90;;
19560;SDS011;9927;47.792;10.616;2023-12-20T14:29:13;4.10;;;3.90;;
19560;SDS011;9927;47.792;10.616;2023-12-20T14:31:40;3.73;;;3.63;;
19560;SDS011;9927;47.792;10.616;2023-12-20T14:34:07;3.73;;;3.63;;
19560;SDS011;9927;47.792;10.616;2023-12-20T14:36:35;4.17;;;4.00;;
19560;SDS011;9927;47.792;10.616;2023-12-20T14:39:02;4.43;;;4.23;;
19560;SDS011;9927;47.792;10.616;2023-12-20T14:41:31;4.20;;;4.10;;
19560;SDS011;9927;47.792;10.616;2023-12-20T14:43:58;4.20;;;4.10;;
19560;SDS011;9927;47.792;10.616;2023-12-20T14:46:31;4.50;;;4.30;;
19560;SDS011;9927;47.792;10.616;2023-12-20T14:48:58;4.20;;;4.10;;
19560;SDS011;9927;47.792;10.616;2023-12-20T14:51:28;4.20;;;4.10;;
19560;SDS011;9927;47.792;10.616;2023-12-20T14:53:56;4.10;;;4.00;;
19560;SDS011;9927;47.792;10.616;2023-12-20T14:56:24;5.07;;;4.77;;
19560;SDS011;9927;47.792;10.616;2023-12-20T14:58:52;4.00;;;3.90;;
19560;SDS011;9927;47.792;10.616;2023-12-20T15:01:20;3.90;;;3.80;;
19560;SDS011;9927;47.792;10.616;2023-12-20T15:03:48;4.00;;;3.90;;
19560;SDS011;9927;47.792;10.616;2023-12-20T15:06:16;3.90;;;3.80;;
19560;SDS011;9927;47.792;10.616;2023-12-20T15:08:43;4.50;;;4.30;;
19560;SDS011;9927;47.792;10.616;2023-12-20T15:11:11;4.50;;;4.30;;
19560;SDS011;9927;47.792;10.616;2023-12-20T15:13:38;3.87;;;3.77;;
19560;SDS011;9927;47.792;10.616;2023-12-20T15:16:05;4.00;;;3.90;;
19560;SDS011;9927;47.792;10.616;2023-12-20T15:18:33;3.90;;;3.80;;
19560;SDS011;9927;47.792;10.616;2023-12-20T15:21:00;3.83;;;3.73;;
19560;SDS011;9927;47.792;10.616;2023-12-20T15:23:27;3.60;;;3.50;;
19560;SDS011;9927;47.792;10.616;2023-12-20T15:25:57;3.70;;;3.60;;
19560;SDS011;9927;47.792;10.616;2023-12-20T15:28:24;3.80;;;3.70;;
19560;SDS011;9927;47.792;10.616;2023-12-20T15:30:51;4.00;;;3.90;;
19560;SDS011;9927;47.792;10.616;2023-12-20T15:33:19;4.23;;;4.03;;
19560;SDS011;9927;47.792;10.616;2023-12-20T15:35:46;4.23;;;4.03;;
19560;SDS011;9927;47.792;10.616;2023-12-20T15:38:13;4.30;;;4.10;;
19560;SDS011;9927;47.792;10.616;2023-12-20T15:40:41;4.10;;;4.00;;
19560;SDS011;9927;47.792;10.616;2023-12-20T15:43:08;4.20;;;4.00;;
19560;SDS011;9927;47.792;10.616;2023-12-20T15:45:36;4.50;;;4.23;;
19560;SDS011;9927;47.792;10.616;2023-12-20T15:48:03;5.30;;;5.00;;
19560;SDS011;9927;47.792;10.616;2023-12-20T15:50:30;4.97;;;4.70;;
19560;SDS011;9927;47.792;10.616;2023-12-20T15:52:58;4.70;;;4.50;;
19560;SDS011;9927;47.792;10.616;2023-12-20T15:55:25;4.40;;;4.20;;
19560;SDS011;9927;47.792;10.616;2023-12-20T15:57:52;4.53;;;4.33;;
19560;SDS011;9927;47.792;10.616;2023-12-20T16:00:21;4.67;;;4.47;;
19560;SDS011;9927;47.792;10.616;2023-12-20T16:02:48;4.50;;;4.30;;
19560;SDS011;9927;47.792;10.616;2023-12-20T16:05:16;4.50;;;4.30;;
19560;SDS011;9927;47.792;10.616;2023-12-20T16:07:44;6.40;;;4.13;;
19560;SDS011;9927;47.792;10.616;2023-12-20T16:10:12;4.63;;;4.37;;
19560;SDS011;9927;47.792;10.616;2023-12-20T16:12:39;4.40;;;4.10;;
19560;SDS011;9927;47.792;10.616;2023-12-20T16:15:06;4.33;;;4.20;;
19560;SDS011;9927;47.792;10.616;2023-12-20T16:17:35;4.30;;;4.17;;
19560;SDS011;9927;47.792;10.616;2023-12-20T16:20:03;4.60;;;4.30;;
19560;SDS011;9927;47.792;10.616;2023-12-20T16:22:31;4.80;;;4.60;;
19560;SDS011;9927;47.792;10.616;2023-12-20T16:24:58;4.53;;;4.23;;
19560;SDS011;9927;47.792;10.616;2023-12-20T16:27:25;4.57;;;4.37;;
19560;SDS011;9927;47.792;10.616;2023-12-20T16:29:53;4.40;;;4.23;;
19560;SDS011;9927;47.792;10.616;2023-12-20T16:32:20;4.63;;;4.43;;
19560;SDS011;9927;47.792;10.616;2023-12-20T16:34:47;5.07;;;4.67;;
19560;SDS011;9927;47.792;10.616;2023-12-20T16:37:15;4.93;;;4.73;;
19560;SDS011;9927;47.792;10.616;2023-12-20T16:39:43;5.07;;;4.73;;
19560;SDS011;9927;47.792;10.616;2023-12-20T16:42:10;4.50;;;4.30;;
19560;SDS011;9927;47.792;10.616;2023-12-20T16:44:37;5.20;;;4.90;;
19560;SDS011;9927;47.792;10.616;2023-12-20T16:47:05;4.67;;;4.47;;
19560;SDS011;9927;47.792;10.616;2023-12-20T16:49:32;5.20;;;4.73;;
19560;SDS011;9927;47.792;10.616;2023-12-20T16:51:59;4.93;;;4.63;;
19560;SDS011;9927;47.792;10.616;2023-12-20T16:54:30;5.30;;;4.87;;
19560;SDS011;9927;47.792;10.616;2023-12-20T16:56:58;5.40;;;5.00;;
19560;SDS011;9927;47.792;10.616;2023-12-20T16:59:25;4.90;;;4.60;;
19560;SDS011;9927;47.792;10.616;2023-12-20T17:01:52;4.70;;;4.40;;
19560;SDS011;9927;47.792;10.616;2023-12-20T17:04:21;4.37;;;4.17;;
19560;SDS011;9927;47.792;10.616;2023-12-20T17:06:50;4.90;;;4.63;;
19560;SDS011;9927;47.792;10.616;2023-12-20T17:09:17;5.80;;;5.40;;
19560;SDS011;9927;47.792;10.616;2023-12-20T17:11:44;5.30;;;4.90;;
19560;SDS011;9927;47.792;10.616;2023-12-20T17:14:11;5.70;;;5.40;;
19560;SDS011;9927;47.792;10.616;2023-12-20T17:16:39;5.40;;;5.10;;
19560;SDS011;9927;47.792;10.616;2023-12-20T17:19:07;5.57;;;5.27;;
19560;SDS011;9927;47.792;10.616;2023-12-20T17:21:34;5.30;;;5.00;;
19560;SDS011;9927;47.792;10.616;2023-12-20T17:24:02;5.37;;;5.07;;
19560;SDS011;9927;47.792;10.616;2023-12-20T17:26:30;4.97;;;4.60;;
19560;SDS011;9927;47.792;10.616;2023-12-20T17:28:57;5.50;;;5.00;;
19560;SDS011;9927;47.792;10.616;2023-12-20T17:31:24;5.57;;;5.17;;
19560;SDS011;9927;47.792;10.616;2023-12-20T17:33:52;5.50;;;5.10;;
19560;SDS011;9927;47.792;10.616;2023-12-20T17:36:19;5.97;;;5.40;;
19560;SDS011;9927;47.792;10.616;2023-12-20T17:38:46;6.00;;;5.50;;
19560;SDS011;9927;47.792;10.616;2023-12-20T17:41:14;7.00;;;6.30;;
19560;SDS011;9927;47.792;10.616;2023-12-20T17:43:41;6.80;;;6.13;;
19560;SDS011;9927;47.792;10.616;2023-12-20T17:46:09;8.03;;;7.00;;
19560;SDS011;9927;47.792;10.616;2023-12-20T17:48:37;8.30;;;7.43;;
19560;SDS011;9927;47.792;10.616;2023-12-20T17:51:04;11.00;;;9.67;;
19560;SDS011;9927;47.792;10.616;2023-12-20T17:53:31;9.20;;;8.40;;
19560;SDS011;9927;47.792;10.616;2023-12-20T17:55:59;11.50;;;8.97;;
19560;SDS011;9927;47.792;10.616;2023-12-20T17:58:26;8.80;;;8.00;;
19560;SDS011;9927;47.792;10.616;2023-12-20T18:00:53;7.93;;;7.10;;
19560;SDS011;9927;47.792;10.616;2023-12-20T18:03:21;7.90;;;7.20;;
19560;SDS011;9927;47.792;10.616;2023-12-20T18:05:48;7.53;;;6.83;;
19560;SDS011;9927;47.792;10.616;2023-12-20T18:08:16;8.07;;;6.80;;
19560;SDS011;9927;47.792;10.616;2023-12-20T18:10:43;7.80;;;7.10;;
19560;SDS011;9927;47.792;10.616;2023-12-20T18:13:10;8.17;;;7.33;;
19560;SDS011;9927;47.792;10.616;2023-12-20T18:15:38;8.17;;;7.47;;
19560;SDS011;9927;47.792;10.616;2023-12-20T18:18:05;8.00;;;7.27;;
19560;SDS011;9927;47.792;10.616;2023-12-20T18:20:35;9.03;;;8.13;;
19560;SDS011;9927;47.792;10.616;2023-12-20T18:23:02;8.23;;;7.53;;
19560;SDS011;9927;47.792;10.616;2023-12-20T18:25:30;8.40;;;7.43;;
19560;SDS011;9927;47.792;10.616;2023-12-20T18:27:58;7.73;;;7.10;;
19560;SDS011;9927;47.792;10.616;2023-12-20T18:30:25;8.80;;;7.50;;
19560;SDS011;9927;47.792;10.616;2023-12-20T18:32:52;8.73;;;7.47;;
19560;SDS011;9927;47.792;10.616;2023-12-20T18:35:20;9.23;;;8.37;;
19560;SDS011;9927;47.792;10.616;2023-12-20T18:37:47;8.40;;;7.70;;
19560;SDS011;9927;47.792;10.616;2023-12-20T18:40:15;8.37;;;7.60;;
19560;SDS011;9927;47.792;10.616;2023-12-20T18:42:42;7.30;;;6.73;;
19560;SDS011;9927;47.792;10.616;2023-12-20T18:45:10;8.23;;;7.43;;
19560;SDS011;9927;47.792;10.616;2023-12-20T18:47:37;9.63;;;7.83;;
19560;SDS011;9927;47.792;10.616;2023-12-20T18:50:04;7.30;;;6.80;;
19560;SDS011;9927;47.792;10.616;2023-12-20T18:52:35;7.57;;;6.97;;
19560;SDS011;9927;47.792;10.616;2023-12-20T18:55:03;7.73;;;7.10;;
19560;SDS011;9927;47.792;10.616;2023-12-20T18:57:31;8.63;;;7.93;;
19560;SDS011;9927;47.792;10.616;2023-12-20T18:59:58;7.33;;;6.73;;
19560;SDS011;9927;47.792;10.616;2023-12-20T19:02:29;7.50;;;6.80;;
19560;SDS011;9927;47.792;10.616;2023-12-20T19:04:58;10.83;;;7.27;;